sensor_id;sensor_type;location;lat;lon;timestamp;P1;durP1;ratioP1;P2;durP2;ratioP2
65552;SDS011;52465;51.560;14.368;2022-12-07T00:00:28;6.47;;;6.10;;
65552;SDS011;52465;51.560;14.368;2022-12-07T00:02:54;6.20;;;5.90;;
65552;SDS011;52465;51.560;14.368;2022-12-07T00:05:19;6.50;;;6.15;;
65552;SDS011;52465;51.560;14.368;2022-12-07T00:07:45;6.50;;;6.20;;
65552;SDS011;52465;51.560;14.368;2022-12-07T00:10:10;6.65;;;6.35;;
65552;SDS011;52465;51.560;14.368;2022-12-07T00:12:35;6.30;;;6.00;;
65552;SDS011;52465;51.560;14.368;2022-12-07T00:15:01;6.47;;;6.15;;
65552;SDS011;52465;51.560;14.368;2022-12-07T00:17:26;6.03;;;5.72;;
65552;SDS011;52465;51.560;14.368;2022-12-07T00:19:51;6.35;;;5.95;;
65552;SDS011;52465;51.560;14.368;2022-12-07T00:22:17;6.85;;;6.38;;
65552;SDS011;52465;51.560;14.368;2022-12-07T00:24:42;6.30;;;6.00;;
65552;SDS011;52465;51.560;14.368;2022-12-07T00:27:07;6.13;;;5.82;;
65552;SDS011;52465;51.560;14.368;2022-12-07T00:29:32;6.60;;;6.20;;
65552;SDS011;52465;51.560;14.368;2022-12-07T00:32:01;6.55;;;6.25;;
65552;SDS011;52465;51.560;14.368;2022-12-07T00:34:26;6.50;;;6.20;;
65552;SDS011;52465;51.560;14.368;2022-12-07T00:36:52;6.40;;;6.10;;
65552;SDS011;52465;51.560;14.368;2022-12-07T00:39:17;6.55;;;6.15;;
65552;SDS011;52465;51.560;14.368;2022-12-07T00:41:42;6.63;;;6.22;;
65552;SDS011;52465;51.560;14.368;2022-12-07T00:44:08;6.80;;;6.40;;
65552;SDS011;52465;51.560;14.368;2022-12-07T00:46:33;6.20;;;5.90;;
65552;SDS011;52465;51.560;14.368;2022-12-07T00:49:01;6.50;;;6.10;;
65552;SDS011;52465;51.560;14.368;2022-12-07T00:51:27;6.15;;;5.82;;
65552;SDS011;52465;51.560;14.368;2022-12-07T00:53:53;6.38;;;6.00;;
65552;SDS011;52465;51.560;14.368;2022-12-07T00:56:21;6.05;;;5.70;;
65552;SDS011;52465;51.560;14.368;2022-12-07T00:58:55;6.28;;;5.95;;
65552;SDS011;52465;51.560;14.368;2022-12-07T01:01:25;6.85;;;6.45;;
65552;SDS011;52465;51.560;14.368;2022-12-07T01:03:52;6.47;;;6.13;;
65552;SDS011;52465;51.560;14.368;2022-12-07T01:06:18;6.43;;;6.13;;
65552;SDS011;52465;51.560;14.368;2022-12-07T01:08:45;6.30;;;6.00;;
65552;SDS011;52465;51.560;14.368;2022-12-07T01:11:12;6.70;;;6.30;;
65552;SDS011;52465;51.560;14.368;2022-12-07T01:13:39;6.45;;;6.05;;
65552;SDS011;52465;51.560;14.368;2022-12-07T01:16:05;6.80;;;6.40;;
65552;SDS011;52465;51.560;14.368;2022-12-07T01:18:33;6.70;;;6.30;;
65552;SDS011;52465;51.560;14.368;2022-12-07T01:23:30;6.55;;;6.15;;
65552;SDS011;52465;51.560;14.368;2022-12-07T01:25:57;6.57;;;6.18;;
65552;SDS011;52465;51.560;14.368;2022-12-07T01:28:24;7.20;;;6.72;;
65552;SDS011;52465;51.560;14.368;2022-12-07T01:31:06;7.00;;;6.60;;
65552;SDS011;52465;51.560;14.368;2022-12-07T01:33:35;6.90;;;6.40;;
65552;SDS011;52465;51.560;14.368;2022-12-07T01:36:04;6.53;;;6.22;;
65552;SDS011;52465;51.560;14.368;2022-12-07T01:38:31;6.85;;;6.45;;
65552;SDS011;52465;51.560;14.368;2022-12-07T01:40:58;6.78;;;6.35;;
65552;SDS011;52465;51.560;14.368;2022-12-07T01:43:25;6.93;;;6.53;;
65552;SDS011;52465;51.560;14.368;2022-12-07T01:45:52;6.45;;;6.10;;
65552;SDS011;52465;51.560;14.368;2022-12-07T01:48:18;7.10;;;6.60;;
65552;SDS011;52465;51.560;14.368;2022-12-07T01:50:48;6.50;;;6.10;;
65552;SDS011;52465;51.560;14.368;2022-12-07T01:53:16;6.85;;;6.30;;
65552;SDS011;52465;51.560;14.368;2022-12-07T01:55:43;6.90;;;6.50;;
65552;SDS011;52465;51.560;14.368;2022-12-07T01:58:12;6.88;;;6.47;;
65552;SDS011;52465;51.560;14.368;2022-12-07T02:00:38;6.95;;;6.47;;
65552;SDS011;52465;51.560;14.368;2022-12-07T02:03:05;6.70;;;6.30;;
65552;SDS011;52465;51.560;14.368;2022-12-07T02:05:37;6.63;;;6.22;;
65552;SDS011;52465;51.560;14.368;2022-12-07T02:08:05;7.07;;;6.68;;
65552;SDS011;52465;51.560;14.368;2022-12-07T02:10:31;6.90;;;6.50;;
65552;SDS011;52465;51.560;14.368;2022-12-07T02:12:58;6.85;;;6.43;;
65552;SDS011;52465;51.560;14.368;2022-12-07T02:15:30;6.70;;;6.30;;
65552;SDS011;52465;51.560;14.368;2022-12-07T02:18:17;7.10;;;6.60;;
65552;SDS011;52465;51.560;14.368;2022-12-07T02:21:07;6.53;;;6.13;;
65552;SDS011;52465;51.560;14.368;2022-12-07T02:26:27;7.07;;;6.57;;
65552;SDS011;52465;51.560;14.368;2022-12-07T02:29:22;6.47;;;5.97;;
65552;SDS011;52465;51.560;14.368;2022-12-07T02:31:55;6.75;;;6.35;;
65552;SDS011;52465;51.560;14.368;2022-12-07T02:34:32;6.88;;;6.28;;
65552;SDS011;52465;51.560;14.368;2022-12-07T02:37:08;7.20;;;6.60;;
65552;SDS011;52465;51.560;14.368;2022-12-07T02:42:32;7.00;;;6.50;;
65552;SDS011;52465;51.560;14.368;2022-12-07T02:45:02;6.70;;;6.20;;
65552;SDS011;52465;51.560;14.368;2022-12-07T02:47:29;7.00;;;6.50;;
65552;SDS011;52465;51.560;14.368;2022-12-07T02:49:58;7.20;;;6.80;;
65552;SDS011;52465;51.560;14.368;2022-12-07T02:52:24;7.18;;;6.68;;
65552;SDS011;52465;51.560;14.368;2022-12-07T02:54:49;6.93;;;6.43;;
65552;SDS011;52465;51.560;14.368;2022-12-07T02:57:34;6.93;;;6.43;;
65552;SDS011;52465;51.560;14.368;2022-12-07T03:00:20;7.22;;;6.70;;
65552;SDS011;52465;51.560;14.368;2022-12-07T03:02:58;7.00;;;6.60;;
65552;SDS011;52465;51.560;14.368;2022-12-07T03:05:35;6.60;;;6.20;;
65552;SDS011;52465;51.560;14.368;2022-12-07T03:13:32;7.03;;;6.63;;
65552;SDS011;52465;51.560;14.368;2022-12-07T03:16:14;7.18;;;6.57;;
65552;SDS011;52465;51.560;14.368;2022-12-07T03:18:41;7.40;;;6.80;;
65552;SDS011;52465;51.560;14.368;2022-12-07T03:21:33;6.95;;;6.45;;
65552;SDS011;52465;51.560;14.368;2022-12-07T03:24:04;7.13;;;6.63;;
65552;SDS011;52465;51.560;14.368;2022-12-07T03:26:36;6.70;;;6.30;;
65552;SDS011;52465;51.560;14.368;2022-12-07T03:29:09;7.35;;;6.75;;
65552;SDS011;52465;51.560;14.368;2022-12-07T03:31:41;7.93;;;7.32;;
65552;SDS011;52465;51.560;14.368;2022-12-07T03:39:22;7.35;;;6.70;;
65552;SDS011;52465;51.560;14.368;2022-12-07T03:41:56;6.90;;;6.40;;
65552;SDS011;52465;51.560;14.368;2022-12-07T03:44:26;7.25;;;6.75;;
65552;SDS011;52465;51.560;14.368;2022-12-07T03:47:05;6.90;;;6.40;;
65552;SDS011;52465;51.560;14.368;2022-12-07T03:49:45;7.20;;;6.70;;
65552;SDS011;52465;51.560;14.368;2022-12-07T03:52:24;6.78;;;6.28;;
65552;SDS011;52465;51.560;14.368;2022-12-07T03:57:34;7.18;;;6.68;;
65552;SDS011;52465;51.560;14.368;2022-12-07T04:00:00;7.00;;;6.60;;
65552;SDS011;52465;51.560;14.368;2022-12-07T04:02:29;7.38;;;6.88;;
65552;SDS011;52465;51.560;14.368;2022-12-07T04:04:54;7.05;;;6.57;;
65552;SDS011;52465;51.560;14.368;2022-12-07T04:07:21;6.93;;;6.53;;
65552;SDS011;52465;51.560;14.368;2022-12-07T04:09:47;7.80;;;7.28;;
65552;SDS011;52465;51.560;14.368;2022-12-07T04:12:12;6.85;;;6.45;;
65552;SDS011;52465;51.560;14.368;2022-12-07T04:14:38;7.18;;;6.68;;
65552;SDS011;52465;51.560;14.368;2022-12-07T04:17:03;6.78;;;6.30;;
65552;SDS011;52465;51.560;14.368;2022-12-07T04:19:30;7.47;;;6.90;;
65552;SDS011;52465;51.560;14.368;2022-12-07T04:21:57;7.20;;;6.80;;
65552;SDS011;52465;51.560;14.368;2022-12-07T04:24:24;6.80;;;6.40;;
65552;SDS011;52465;51.560;14.368;2022-12-07T04:26:50;7.25;;;6.78;;
65552;SDS011;52465;51.560;14.368;2022-12-07T04:29:15;6.88;;;6.45;;
65552;SDS011;52465;51.560;14.368;2022-12-07T04:31:41;7.00;;;6.50;;
65552;SDS011;52465;51.560;14.368;2022-12-07T04:34:07;7.05;;;6.63;;
65552;SDS011;52465;51.560;14.368;2022-12-07T04:36:33;7.20;;;6.70;;
65552;SDS011;52465;51.560;14.368;2022-12-07T04:38:58;7.18;;;6.72;;
65552;SDS011;52465;51.560;14.368;2022-12-07T04:41:24;7.22;;;6.72;;
65552;SDS011;52465;51.560;14.368;2022-12-07T04:43:54;6.93;;;6.47;;
65552;SDS011;52465;51.560;14.368;2022-12-07T04:46:21;7.55;;;7.05;;
65552;SDS011;52465;51.560;14.368;2022-12-07T04:48:46;7.30;;;6.80;;
65552;SDS011;52465;51.560;14.368;2022-12-07T04:51:18;6.90;;;6.47;;
65552;SDS011;52465;51.560;14.368;2022-12-07T04:53:45;7.28;;;6.75;;
65552;SDS011;52465;51.560;14.368;2022-12-07T04:56:11;6.95;;;6.55;;
65552;SDS011;52465;51.560;14.368;2022-12-07T04:58:36;7.25;;;6.80;;
65552;SDS011;52465;51.560;14.368;2022-12-07T05:01:02;7.18;;;6.68;;
65552;SDS011;52465;51.560;14.368;2022-12-07T05:03:30;7.60;;;7.00;;
65552;SDS011;52465;51.560;14.368;2022-12-07T05:05:56;7.05;;;6.55;;
65552;SDS011;52465;51.560;14.368;2022-12-07T05:08:21;7.47;;;6.90;;
65552;SDS011;52465;51.560;14.368;2022-12-07T05:10:48;6.78;;;6.38;;
65552;SDS011;52465;51.560;14.368;2022-12-07T05:13:14;7.88;;;7.28;;
65552;SDS011;52465;51.560;14.368;2022-12-07T05:15:39;7.18;;;6.68;;
65552;SDS011;52465;51.560;14.368;2022-12-07T05:18:05;7.50;;;6.90;;
65552;SDS011;52465;51.560;14.368;2022-12-07T05:20:30;7.32;;;6.78;;
65552;SDS011;52465;51.560;14.368;2022-12-07T05:22:56;7.80;;;7.20;;
65552;SDS011;52465;51.560;14.368;2022-12-07T05:25:23;7.30;;;6.70;;
65552;SDS011;52465;51.560;14.368;2022-12-07T05:27:48;7.45;;;6.95;;
65552;SDS011;52465;51.560;14.368;2022-12-07T05:30:14;7.63;;;7.03;;
65552;SDS011;52465;51.560;14.368;2022-12-07T05:32:39;7.75;;;7.15;;
65552;SDS011;52465;51.560;14.368;2022-12-07T05:35:04;7.22;;;6.72;;
65552;SDS011;52465;51.560;14.368;2022-12-07T05:37:30;7.63;;;7.05;;
65552;SDS011;52465;51.560;14.368;2022-12-07T05:39:55;7.35;;;6.85;;
65552;SDS011;52465;51.560;14.368;2022-12-07T05:42:21;7.10;;;6.60;;
65552;SDS011;52465;51.560;14.368;2022-12-07T05:44:46;7.88;;;7.30;;
65552;SDS011;52465;51.560;14.368;2022-12-07T05:47:12;7.90;;;7.30;;
65552;SDS011;52465;51.560;14.368;2022-12-07T05:49:39;7.78;;;7.25;;
65552;SDS011;52465;51.560;14.368;2022-12-07T05:52:04;7.63;;;7.13;;
65552;SDS011;52465;51.560;14.368;2022-12-07T05:54:30;7.50;;;7.00;;
65552;SDS011;52465;51.560;14.368;2022-12-07T05:56:55;7.78;;;7.20;;
65552;SDS011;52465;51.560;14.368;2022-12-07T05:59:21;8.35;;;7.65;;
65552;SDS011;52465;51.560;14.368;2022-12-07T06:01:50;8.10;;;7.50;;
65552;SDS011;52465;51.560;14.368;2022-12-07T06:04:20;8.25;;;7.55;;
65552;SDS011;52465;51.560;14.368;2022-12-07T06:06:46;7.70;;;7.20;;
65552;SDS011;52465;51.560;14.368;2022-12-07T06:09:11;8.43;;;7.72;;
65552;SDS011;52465;51.560;14.368;2022-12-07T06:11:39;8.02;;;7.38;;
65552;SDS011;52465;51.560;14.368;2022-12-07T06:14:23;8.55;;;7.75;;
65552;SDS011;52465;51.560;14.368;2022-12-07T06:16:49;8.82;;;8.02;;
65552;SDS011;52465;51.560;14.368;2022-12-07T06:19:14;7.32;;;6.72;;
65552;SDS011;52465;51.560;14.368;2022-12-07T06:21:42;8.30;;;7.60;;
65552;SDS011;52465;51.560;14.368;2022-12-07T06:24:09;7.43;;;6.82;;
65552;SDS011;52465;51.560;14.368;2022-12-07T06:26:36;8.20;;;7.45;;
65552;SDS011;52465;51.560;14.368;2022-12-07T06:29:02;8.32;;;7.63;;
65552;SDS011;52465;51.560;14.368;2022-12-07T06:31:28;8.07;;;7.47;;
65552;SDS011;52465;51.560;14.368;2022-12-07T06:33:57;8.60;;;7.85;;
65552;SDS011;52465;51.560;14.368;2022-12-07T06:36:23;7.93;;;7.22;;
65552;SDS011;52465;51.560;14.368;2022-12-07T06:38:52;7.50;;;7.00;;
65552;SDS011;52465;51.560;14.368;2022-12-07T06:41:18;7.65;;;7.05;;
65552;SDS011;52465;51.560;14.368;2022-12-07T06:43:43;7.80;;;7.10;;
65552;SDS011;52465;51.560;14.368;2022-12-07T06:46:08;7.85;;;7.25;;
65552;SDS011;52465;51.560;14.368;2022-12-07T06:48:33;7.88;;;7.28;;
65552;SDS011;52465;51.560;14.368;2022-12-07T06:50:59;7.75;;;7.15;;
65552;SDS011;52465;51.560;14.368;2022-12-07T06:53:27;8.13;;;7.53;;
65552;SDS011;52465;51.560;14.368;2022-12-07T06:55:52;8.15;;;7.45;;
65552;SDS011;52465;51.560;14.368;2022-12-07T06:58:18;8.45;;;7.65;;
65552;SDS011;52465;51.560;14.368;2022-12-07T07:00:43;8.48;;;7.88;;
65552;SDS011;52465;51.560;14.368;2022-12-07T07:03:09;8.43;;;7.72;;
65552;SDS011;52465;51.560;14.368;2022-12-07T07:05:35;8.13;;;7.43;;
65552;SDS011;52465;51.560;14.368;2022-12-07T07:08:00;7.97;;;7.38;;
65552;SDS011;52465;51.560;14.368;2022-12-07T07:10:26;8.07;;;7.38;;
65552;SDS011;52465;51.560;14.368;2022-12-07T07:12:51;8.25;;;7.65;;
65552;SDS011;52465;51.560;14.368;2022-12-07T07:15:17;8.05;;;7.35;;
65552;SDS011;52465;51.560;14.368;2022-12-07T07:17:42;8.20;;;7.50;;
65552;SDS011;52465;51.560;14.368;2022-12-07T07:20:08;8.18;;;7.53;;
65552;SDS011;52465;51.560;14.368;2022-12-07T07:22:34;8.18;;;7.53;;
65552;SDS011;52465;51.560;14.368;2022-12-07T07:24:59;8.07;;;7.40;;
65552;SDS011;52465;51.560;14.368;2022-12-07T07:27:25;8.20;;;7.53;;
65552;SDS011;52465;51.560;14.368;2022-12-07T07:29:50;8.20;;;7.55;;
65552;SDS011;52465;51.560;14.368;2022-12-07T07:32:15;8.23;;;7.53;;
65552;SDS011;52465;51.560;14.368;2022-12-07T07:34:41;8.55;;;7.85;;
65552;SDS011;52465;51.560;14.368;2022-12-07T07:37:06;8.55;;;7.85;;
65552;SDS011;52465;51.560;14.368;2022-12-07T07:39:33;7.88;;;7.35;;
65552;SDS011;52465;51.560;14.368;2022-12-07T07:41:58;8.73;;;7.93;;
65552;SDS011;52465;51.560;14.368;2022-12-07T07:44:23;8.52;;;7.82;;
65552;SDS011;52465;51.560;14.368;2022-12-07T07:46:49;8.45;;;7.75;;
65552;SDS011;52465;51.560;14.368;2022-12-07T07:49:14;8.05;;;7.35;;
65552;SDS011;52465;51.560;14.368;2022-12-07T07:51:39;7.75;;;7.15;;
65552;SDS011;52465;51.560;14.368;2022-12-07T07:54:05;8.18;;;7.47;;
65552;SDS011;52465;51.560;14.368;2022-12-07T07:56:30;8.02;;;7.43;;
65552;SDS011;52465;51.560;14.368;2022-12-07T07:58:55;8.57;;;7.78;;
65552;SDS011;52465;51.560;14.368;2022-12-07T08:01:21;8.40;;;7.70;;
65552;SDS011;52465;51.560;14.368;2022-12-07T08:03:46;7.95;;;7.38;;
65552;SDS011;52465;51.560;14.368;2022-12-07T08:06:12;8.55;;;7.75;;
65552;SDS011;52465;51.560;14.368;2022-12-07T08:08:37;8.70;;;7.88;;
65552;SDS011;52465;51.560;14.368;2022-12-07T08:11:06;8.48;;;7.82;;
65552;SDS011;52465;51.560;14.368;2022-12-07T08:13:33;8.85;;;8.05;;
65552;SDS011;52465;51.560;14.368;2022-12-07T08:15:58;9.93;;;7.90;;
65552;SDS011;52465;51.560;14.368;2022-12-07T08:18:28;7.93;;;7.32;;
65552;SDS011;52465;51.560;14.368;2022-12-07T08:20:58;9.52;;;8.63;;
65552;SDS011;52465;51.560;14.368;2022-12-07T08:23:24;9.35;;;8.55;;
65552;SDS011;52465;51.560;14.368;2022-12-07T08:25:50;10.02;;;9.13;;
65552;SDS011;52465;51.560;14.368;2022-12-07T08:28:15;9.40;;;8.50;;
65552;SDS011;52465;51.560;14.368;2022-12-07T08:30:40;9.57;;;8.73;;
65552;SDS011;52465;51.560;14.368;2022-12-07T08:33:05;9.77;;;8.68;;
65552;SDS011;52465;51.560;14.368;2022-12-07T08:35:32;9.55;;;8.65;;
65552;SDS011;52465;51.560;14.368;2022-12-07T08:37:58;9.90;;;9.00;;
65552;SDS011;52465;51.560;14.368;2022-12-07T08:40:23;9.77;;;8.88;;
65552;SDS011;52465;51.560;14.368;2022-12-07T08:42:49;9.35;;;8.40;;
65552;SDS011;52465;51.560;14.368;2022-12-07T08:45:16;9.40;;;8.48;;
65552;SDS011;52465;51.560;14.368;2022-12-07T08:47:56;9.52;;;8.73;;
65552;SDS011;52465;51.560;14.368;2022-12-07T08:50:27;9.93;;;9.00;;
65552;SDS011;52465;51.560;14.368;2022-12-07T08:52:54;9.63;;;8.73;;
65552;SDS011;52465;51.560;14.368;2022-12-07T08:55:22;9.82;;;8.95;;
65552;SDS011;52465;51.560;14.368;2022-12-07T08:57:48;9.85;;;8.85;;
65552;SDS011;52465;51.560;14.368;2022-12-07T09:00:14;8.95;;;8.15;;
65552;SDS011;52465;51.560;14.368;2022-12-07T09:02:41;9.32;;;8.50;;
65552;SDS011;52465;51.560;14.368;2022-12-07T09:05:08;9.52;;;8.73;;
65552;SDS011;52465;51.560;14.368;2022-12-07T09:07:34;9.35;;;8.52;;
65552;SDS011;52465;51.560;14.368;2022-12-07T09:10:00;9.30;;;8.35;;
65552;SDS011;52465;51.560;14.368;2022-12-07T09:12:26;8.98;;;8.05;;
65552;SDS011;52465;51.560;14.368;2022-12-07T09:14:51;9.18;;;8.27;;
65552;SDS011;52465;51.560;14.368;2022-12-07T09:17:16;10.20;;;9.27;;
65552;SDS011;52465;51.560;14.368;2022-12-07T09:19:42;9.82;;;8.50;;
65552;SDS011;52465;51.560;14.368;2022-12-07T09:22:07;9.48;;;8.65;;
65552;SDS011;52465;51.560;14.368;2022-12-07T09:24:33;9.73;;;8.85;;
65552;SDS011;52465;51.560;14.368;2022-12-07T09:27:02;9.90;;;9.00;;
65552;SDS011;52465;51.560;14.368;2022-12-07T09:29:27;9.27;;;8.40;;
65552;SDS011;52465;51.560;14.368;2022-12-07T09:31:52;9.68;;;8.70;;
65552;SDS011;52465;51.560;14.368;2022-12-07T09:34:18;9.82;;;8.82;;
65552;SDS011;52465;51.560;14.368;2022-12-07T09:36:43;9.65;;;8.75;;
65552;SDS011;52465;51.560;14.368;2022-12-07T09:39:09;9.95;;;9.05;;
65552;SDS011;52465;51.560;14.368;2022-12-07T09:41:37;8.55;;;7.93;;
65552;SDS011;52465;51.560;14.368;2022-12-07T09:44:05;9.17;;;8.33;;
65552;SDS011;52465;51.560;14.368;2022-12-07T09:46:35;9.30;;;8.50;;
65552;SDS011;52465;51.560;14.368;2022-12-07T09:49:19;10.13;;;9.20;;
65552;SDS011;52465;51.560;14.368;2022-12-07T09:51:47;8.93;;;8.10;;
65552;SDS011;52465;51.560;14.368;2022-12-07T09:54:23;9.50;;;8.60;;
65552;SDS011;52465;51.560;14.368;2022-12-07T09:56:49;9.32;;;8.43;;
65552;SDS011;52465;51.560;14.368;2022-12-07T09:59:16;9.35;;;8.65;;
65552;SDS011;52465;51.560;14.368;2022-12-07T10:01:43;9.52;;;8.60;;
65552;SDS011;52465;51.560;14.368;2022-12-07T10:04:13;8.73;;;8.10;;
65552;SDS011;52465;51.560;14.368;2022-12-07T10:06:42;9.10;;;8.27;;
65552;SDS011;52465;51.560;14.368;2022-12-07T10:09:09;9.45;;;8.55;;
65552;SDS011;52465;51.560;14.368;2022-12-07T10:14:28;9.15;;;8.35;;
65552;SDS011;52465;51.560;14.368;2022-12-07T10:16:55;9.60;;;8.70;;
65552;SDS011;52465;51.560;14.368;2022-12-07T10:22:01;8.95;;;8.02;;
65552;SDS011;52465;51.560;14.368;2022-12-07T10:24:27;9.13;;;8.23;;
65552;SDS011;52465;51.560;14.368;2022-12-07T10:26:53;8.75;;;8.02;;
65552;SDS011;52465;51.560;14.368;2022-12-07T10:29:21;10.52;;;9.32;;
65552;SDS011;52465;51.560;14.368;2022-12-07T10:31:57;9.60;;;8.77;;
65552;SDS011;52465;51.560;14.368;2022-12-07T10:34:31;9.85;;;8.95;;
65552;SDS011;52465;51.560;14.368;2022-12-07T10:39:46;9.30;;;8.48;;
65552;SDS011;52465;51.560;14.368;2022-12-07T10:42:22;8.85;;;8.13;;
65552;SDS011;52465;51.560;14.368;2022-12-07T10:45:09;8.90;;;8.10;;
65552;SDS011;52465;51.560;14.368;2022-12-07T10:58:59;8.35;;;7.65;;
65552;SDS011;52465;51.560;14.368;2022-12-07T11:09:42;9.05;;;8.25;;
65552;SDS011;52465;51.560;14.368;2022-12-07T11:14:57;8.55;;;7.78;;
65552;SDS011;52465;51.560;14.368;2022-12-07T11:23:21;8.32;;;7.63;;
65552;SDS011;52465;51.560;14.368;2022-12-07T11:26:03;8.23;;;7.53;;
65552;SDS011;52465;51.560;14.368;2022-12-07T11:28:44;8.57;;;7.88;;
65552;SDS011;52465;51.560;14.368;2022-12-07T11:34:33;8.75;;;7.95;;
65552;SDS011;52465;51.560;14.368;2022-12-07T11:39:39;8.60;;;7.90;;
65552;SDS011;52465;51.560;14.368;2022-12-07T11:45:00;8.60;;;7.88;;
65552;SDS011;52465;51.560;14.368;2022-12-07T11:50:14;9.10;;;8.30;;
65552;SDS011;52465;51.560;14.368;2022-12-07T11:52:53;8.20;;;7.60;;
65552;SDS011;52465;51.560;14.368;2022-12-07T11:55:31;8.60;;;7.90;;
65552;SDS011;52465;51.560;14.368;2022-12-07T12:03:40;7.82;;;7.32;;
65552;SDS011;52465;51.560;14.368;2022-12-07T12:06:10;8.43;;;7.72;;
65552;SDS011;52465;51.560;14.368;2022-12-07T12:08:39;8.50;;;7.72;;
65552;SDS011;52465;51.560;14.368;2022-12-07T12:20:00;8.05;;;7.35;;
65552;SDS011;52465;51.560;14.368;2022-12-07T12:22:39;8.18;;;7.57;;
65552;SDS011;52465;51.560;14.368;2022-12-07T12:25:19;8.30;;;7.60;;
65552;SDS011;52465;51.560;14.368;2022-12-07T12:27:54;7.80;;;7.20;;
65552;SDS011;52465;51.560;14.368;2022-12-07T12:32:51;8.40;;;7.80;;
65552;SDS011;52465;51.560;14.368;2022-12-07T12:35:21;7.68;;;7.10;;
65552;SDS011;52465;51.560;14.368;2022-12-07T12:37:48;8.70;;;8.00;;
65552;SDS011;52465;51.560;14.368;2022-12-07T12:42:46;8.10;;;7.50;;
65552;SDS011;52465;51.560;14.368;2022-12-07T12:45:18;8.13;;;7.43;;
65552;SDS011;52465;51.560;14.368;2022-12-07T12:50:40;8.57;;;7.78;;
65552;SDS011;52465;51.560;14.368;2022-12-07T12:53:16;8.50;;;7.78;;
65552;SDS011;52465;51.560;14.368;2022-12-07T12:58:27;7.97;;;7.45;;
65552;SDS011;52465;51.560;14.368;2022-12-07T13:06:51;8.07;;;7.38;;
65552;SDS011;52465;51.560;14.368;2022-12-07T13:09:23;7.85;;;7.25;;
65552;SDS011;52465;51.560;14.368;2022-12-07T13:11:57;6.80;;;6.38;;
65552;SDS011;52465;51.560;14.368;2022-12-07T13:27:43;7.45;;;6.85;;
65552;SDS011;52465;51.560;14.368;2022-12-07T13:30:17;6.50;;;6.13;;
65552;SDS011;52465;51.560;14.368;2022-12-07T13:35:32;6.90;;;6.40;;
65552;SDS011;52465;51.560;14.368;2022-12-07T13:38:01;6.93;;;6.53;;
65552;SDS011;52465;51.560;14.368;2022-12-07T13:40:30;7.63;;;6.85;;
65552;SDS011;52465;51.560;14.368;2022-12-07T13:42:58;6.53;;;6.13;;
65552;SDS011;52465;51.560;14.368;2022-12-07T13:45:26;7.18;;;6.57;;
65552;SDS011;52465;51.560;14.368;2022-12-07T13:48:13;7.32;;;6.80;;
65552;SDS011;52465;51.560;14.368;2022-12-07T13:50:40;7.22;;;6.72;;
65552;SDS011;52465;51.560;14.368;2022-12-07T13:53:07;7.03;;;6.53;;
65552;SDS011;52465;51.560;14.368;2022-12-07T13:55:38;6.22;;;5.82;;
65552;SDS011;52465;51.560;14.368;2022-12-07T13:58:10;6.28;;;5.90;;
65552;SDS011;52465;51.560;14.368;2022-12-07T14:00:35;7.25;;;6.75;;
65552;SDS011;52465;51.560;14.368;2022-12-07T14:05:30;6.82;;;6.32;;
65552;SDS011;52465;51.560;14.368;2022-12-07T14:08:03;7.07;;;6.60;;
65552;SDS011;52465;51.560;14.368;2022-12-07T14:10:31;6.43;;;6.03;;
65552;SDS011;52465;51.560;14.368;2022-12-07T14:13:02;7.10;;;6.60;;
65552;SDS011;52465;51.560;14.368;2022-12-07T14:15:51;6.55;;;6.15;;
65552;SDS011;52465;51.560;14.368;2022-12-07T14:18:30;6.50;;;6.10;;
65552;SDS011;52465;51.560;14.368;2022-12-07T14:23:34;6.40;;;6.00;;
65552;SDS011;52465;51.560;14.368;2022-12-07T14:26:04;6.03;;;5.72;;
65552;SDS011;52465;51.560;14.368;2022-12-07T14:28:33;6.07;;;5.78;;
65552;SDS011;52465;51.560;14.368;2022-12-07T14:31:00;6.45;;;6.03;;
65552;SDS011;52465;51.560;14.368;2022-12-07T14:33:26;6.75;;;6.20;;
65552;SDS011;52465;51.560;14.368;2022-12-07T14:35:52;6.18;;;5.88;;
65552;SDS011;52465;51.560;14.368;2022-12-07T14:38:22;6.20;;;5.90;;
65552;SDS011;52465;51.560;14.368;2022-12-07T14:40:47;6.10;;;5.80;;
65552;SDS011;52465;51.560;14.368;2022-12-07T14:43:17;7.07;;;6.68;;
65552;SDS011;52465;51.560;14.368;2022-12-07T14:45:43;6.40;;;5.90;;
65552;SDS011;52465;51.560;14.368;2022-12-07T14:48:11;6.88;;;6.40;;
65552;SDS011;52465;51.560;14.368;2022-12-07T14:50:40;6.07;;;5.78;;
65552;SDS011;52465;51.560;14.368;2022-12-07T14:53:13;6.32;;;5.93;;
65552;SDS011;52465;51.560;14.368;2022-12-07T14:55:41;6.30;;;5.80;;
65552;SDS011;52465;51.560;14.368;2022-12-07T14:58:07;5.70;;;5.30;;
65552;SDS011;52465;51.560;14.368;2022-12-07T15:00:38;6.05;;;5.70;;
65552;SDS011;52465;51.560;14.368;2022-12-07T15:03:03;6.10;;;5.80;;
65552;SDS011;52465;51.560;14.368;2022-12-07T15:05:29;6.75;;;6.20;;
65552;SDS011;52465;51.560;14.368;2022-12-07T15:07:54;6.22;;;5.82;;
65552;SDS011;52465;51.560;14.368;2022-12-07T15:10:21;6.10;;;5.70;;
65552;SDS011;52465;51.560;14.368;2022-12-07T15:12:48;5.78;;;5.47;;
65552;SDS011;52465;51.560;14.368;2022-12-07T15:15:14;6.50;;;6.10;;
65552;SDS011;52465;51.560;14.368;2022-12-07T15:17:39;6.40;;;6.10;;
65552;SDS011;52465;51.560;14.368;2022-12-07T15:20:07;7.03;;;6.50;;
65552;SDS011;52465;51.560;14.368;2022-12-07T15:22:36;5.82;;;5.50;;
65552;SDS011;52465;51.560;14.368;2022-12-07T15:25:01;6.30;;;5.90;;
65552;SDS011;52465;51.560;14.368;2022-12-07T15:27:29;6.53;;;6.13;;
65552;SDS011;52465;51.560;14.368;2022-12-07T15:29:55;6.65;;;6.22;;
65552;SDS011;52465;51.560;14.368;2022-12-07T15:32:20;6.15;;;5.82;;
65552;SDS011;52465;51.560;14.368;2022-12-07T15:34:47;6.40;;;6.05;;
65552;SDS011;52465;51.560;14.368;2022-12-07T15:37:13;6.28;;;5.90;;
65552;SDS011;52465;51.560;14.368;2022-12-07T15:39:38;6.20;;;5.90;;
65552;SDS011;52465;51.560;14.368;2022-12-07T15:42:03;6.57;;;6.07;;
65552;SDS011;52465;51.560;14.368;2022-12-07T15:44:29;6.72;;;6.22;;
65552;SDS011;52465;51.560;14.368;2022-12-07T15:47:12;6.65;;;6.15;;
65552;SDS011;52465;51.560;14.368;2022-12-07T15:49:38;6.28;;;5.90;;
65552;SDS011;52465;51.560;14.368;2022-12-07T15:52:03;7.22;;;6.53;;
65552;SDS011;52465;51.560;14.368;2022-12-07T15:54:28;6.88;;;6.45;;
65552;SDS011;52465;51.560;14.368;2022-12-07T15:56:54;7.30;;;6.80;;
65552;SDS011;52465;51.560;14.368;2022-12-07T15:59:20;7.35;;;6.80;;
65552;SDS011;52465;51.560;14.368;2022-12-07T16:01:46;6.93;;;6.53;;
65552;SDS011;52465;51.560;14.368;2022-12-07T16:04:11;7.20;;;6.70;;
65552;SDS011;52465;51.560;14.368;2022-12-07T16:06:37;6.72;;;6.22;;
65552;SDS011;52465;51.560;14.368;2022-12-07T16:09:02;6.70;;;6.30;;
65552;SDS011;52465;51.560;14.368;2022-12-07T16:11:28;6.75;;;6.35;;
65552;SDS011;52465;51.560;14.368;2022-12-07T16:13:53;6.50;;;6.00;;
65552;SDS011;52465;51.560;14.368;2022-12-07T16:16:19;7.05;;;6.45;;
65552;SDS011;52465;51.560;14.368;2022-12-07T16:18:46;6.97;;;6.47;;
65552;SDS011;52465;51.560;14.368;2022-12-07T16:21:13;6.40;;;5.97;;
65552;SDS011;52465;51.560;14.368;2022-12-07T16:23:39;6.32;;;5.93;;
65552;SDS011;52465;51.560;14.368;2022-12-07T16:28:39;6.80;;;6.30;;
65552;SDS011;52465;51.560;14.368;2022-12-07T16:31:05;6.78;;;6.35;;
65552;SDS011;52465;51.560;14.368;2022-12-07T16:33:34;6.43;;;6.03;;
65552;SDS011;52465;51.560;14.368;2022-12-07T16:36:00;7.03;;;6.53;;
65552;SDS011;52465;51.560;14.368;2022-12-07T16:38:26;6.85;;;6.38;;
65552;SDS011;52465;51.560;14.368;2022-12-07T16:40:52;7.40;;;6.70;;
65552;SDS011;52465;51.560;14.368;2022-12-07T16:43:17;6.75;;;6.25;;